JA4041 RJOY-RJOY

Flight info

Callsign JA4041
Flight time 0h 8m
Altitude 1500
Route /C172
Aircraft C172/L-G/C

Departure

Time 2026-05-05 08:28
Airport Yao Airport (RJOY)

Arrival

Time 2026-05-05 08:36
Airport Yao Airport (RJOY)
Time Latitude Longitude Altitude Speed Heading
2026-05-05 08:20 34.59743 135.59588 40 ft 0 kts 87°
2026-05-05 08:23 34.59743 135.59592 40 ft 4 kts 86°
2026-05-05 08:23 34.59705 135.59617 41 ft 9 kts 188°
2026-05-05 08:23 34.59684 135.59675 41 ft 10 kts 86°
2026-05-05 08:24 34.59689 135.59809 41 ft 20 kts 83°
2026-05-05 08:24 34.59698 135.59984 41 ft 21 kts 86°
2026-05-05 08:24 34.59710 135.60150 39 ft 19 kts 89°
2026-05-05 08:24 34.59682 135.60217 38 ft 0 kts 128°
2026-05-05 08:25 34.59682 135.60218 38 ft 0 kts 128°
2026-05-05 08:25 34.59682 135.60217 38 ft 0 kts 128°
2026-05-05 08:26 34.59645 135.60274 38 ft 19 kts 113°
2026-05-05 08:26 34.59643 135.60478 39 ft 24 kts 85°
2026-05-05 08:26 34.59628 135.60571 39 ft 11 kts 255°
2026-05-05 08:27 34.59636 135.60479 39 ft 11 kts 265°
2026-05-05 08:27 34.59634 135.60429 38 ft 21 kts 267°
2026-05-05 08:27 34.59615 135.60037 42 ft 68 kts 266°
2026-05-05 08:27 34.59577 135.59417 210 ft 77 kts 271°
2026-05-05 08:28 34.59572 135.58796 435 ft 72 kts 278°
2026-05-05 08:28 34.59694 135.58220 654 ft 68 kts 274°
2026-05-05 08:28 34.59447 135.57770 849 ft 72 kts 208°
2026-05-05 08:28 34.58922 135.57720 932 ft 80 kts 187°
2026-05-05 08:29 34.58391 135.57961 974 ft 89 kts 138°
2026-05-05 08:29 34.58174 135.58721 997 ft 102 kts 98°
2026-05-05 08:29 34.58078 135.59579 1043 ft 102 kts 94°
2026-05-05 08:30 34.58114 135.61261 1040 ft 95 kts 85°
2026-05-05 08:30 34.58193 135.61959 1146 ft 76 kts 79°
2026-05-05 08:30 34.58341 135.62563 1069 ft 74 kts 36°
2026-05-05 08:30 34.58880 135.62649 919 ft 85 kts 352°
2026-05-05 08:31 34.59432 135.62445 803 ft 81 kts 316°
2026-05-05 08:31 34.59666 135.61800 519 ft 93 kts 273°
2026-05-05 08:31 34.59665 135.61055 256 ft 82 kts 265°
2026-05-05 08:31 34.59627 135.60416 64 ft 69 kts 268°
2026-05-05 08:32 34.59613 135.59925 42 ft 58 kts 265°
2026-05-05 08:32 34.59579 135.59326 133 ft 79 kts 272°
2026-05-05 08:32 34.59560 135.58658 381 ft 75 kts 265°
2026-05-05 08:32 34.59548 135.57998 573 ft 74 kts 263°
2026-05-05 08:33 34.59189 135.57568 752 ft 80 kts 198°
2026-05-05 08:33 34.58610 135.57532 894 ft 86 kts 181°
2026-05-05 08:33 34.58055 135.57875 1040 ft 101 kts 125°
2026-05-05 08:33 34.57932 135.58731 1002 ft 109 kts 87°
2026-05-05 08:34 34.57983 135.59624 999 ft 105 kts 86°
2026-05-05 08:34 34.58044 135.60485 954 ft 100 kts 84°
2026-05-05 08:34 34.58119 135.61298 885 ft 93 kts 84°
2026-05-05 08:34 34.58232 135.62075 810 ft 92 kts 72°
2026-05-05 08:35 34.58591 135.62692 666 ft 90 kts 20°
2026-05-05 08:35 34.59154 135.62902 552 ft 78 kts 357°
2026-05-05 08:35 34.59572 135.62698 421 ft 62 kts 296°
2026-05-05 08:35 34.59688 135.62224 416 ft 64 kts 276°
2026-05-05 08:36 34.59686 135.61633 374 ft 76 kts 265°
2026-05-05 08:36 34.59661 135.60993 194 ft 76 kts 268°
2026-05-05 08:36 34.59627 135.60390 63 ft 69 kts 267°
2026-05-05 08:36 34.59611 135.59913 42 ft 43 kts 266°
2026-05-05 08:37 34.59595 135.59653 42 ft 25 kts 268°
2026-05-05 08:37 34.59588 135.59439 42 ft 28 kts 266°
2026-05-05 08:37 34.59607 135.59288 41 ft 14 kts 349°
2026-05-05 08:37 34.59667 135.59289 40 ft 7 kts 38°
2026-05-05 08:38 34.59676 135.59356 40 ft 10 kts 62°
2026-05-05 08:38 34.59700 135.59387 40 ft 0 kts 88°